sensor_id;sensor_type;location;lat;lon;timestamp;P1;durP1;ratioP1;P2;durP2;ratioP2
27728;SDS011;15126;42.186;24.340;2023-12-20T00:06:08;47.60;;;37.30;;
27728;SDS011;15126;42.186;24.340;2023-12-20T00:08:36;51.37;;;37.97;;
27728;SDS011;15126;42.186;24.340;2023-12-20T00:11:03;40.67;;;36.13;;
27728;SDS011;15126;42.186;24.340;2023-12-20T00:13:30;50.30;;;38.77;;
27728;SDS011;15126;42.186;24.340;2023-12-20T00:15:58;50.03;;;37.80;;
27728;SDS011;15126;42.186;24.340;2023-12-20T00:18:25;47.90;;;37.63;;
27728;SDS011;15126;42.186;24.340;2023-12-20T00:20:52;47.77;;;38.13;;
27728;SDS011;15126;42.186;24.340;2023-12-20T00:23:19;50.57;;;38.07;;
27728;SDS011;15126;42.186;24.340;2023-12-20T00:25:46;46.57;;;35.10;;
27728;SDS011;15126;42.186;24.340;2023-12-20T00:28:16;54.13;;;40.00;;
27728;SDS011;15126;42.186;24.340;2023-12-20T00:30:46;49.17;;;37.27;;
27728;SDS011;15126;42.186;24.340;2023-12-20T00:33:14;50.07;;;37.97;;
27728;SDS011;15126;42.186;24.340;2023-12-20T00:35:41;48.83;;;36.87;;
27728;SDS011;15126;42.186;24.340;2023-12-20T00:38:08;46.20;;;35.83;;
27728;SDS011;15126;42.186;24.340;2023-12-20T00:40:38;46.20;;;35.30;;
27728;SDS011;15126;42.186;24.340;2023-12-20T00:43:05;43.93;;;35.40;;
27728;SDS011;15126;42.186;24.340;2023-12-20T00:45:31;44.80;;;34.57;;
27728;SDS011;15126;42.186;24.340;2023-12-20T00:47:59;45.83;;;35.13;;
27728;SDS011;15126;42.186;24.340;2023-12-20T00:50:27;46.90;;;35.73;;
27728;SDS011;15126;42.186;24.340;2023-12-20T00:52:54;47.57;;;34.80;;
27728;SDS011;15126;42.186;24.340;2023-12-20T00:55:21;42.43;;;34.27;;
27728;SDS011;15126;42.186;24.340;2023-12-20T00:57:48;43.77;;;33.47;;
27728;SDS011;15126;42.186;24.340;2023-12-20T01:00:15;48.50;;;33.80;;
27728;SDS011;15126;42.186;24.340;2023-12-20T01:02:42;36.80;;;32.87;;
27728;SDS011;15126;42.186;24.340;2023-12-20T01:05:11;44.63;;;32.70;;
27728;SDS011;15126;42.186;24.340;2023-12-20T01:07:40;44.47;;;33.70;;
27728;SDS011;15126;42.186;24.340;2023-12-20T01:10:07;38.23;;;33.63;;
27728;SDS011;15126;42.186;24.340;2023-12-20T01:12:35;42.37;;;31.00;;
27728;SDS011;15126;42.186;24.340;2023-12-20T01:15:03;37.47;;;32.00;;
27728;SDS011;15126;42.186;24.340;2023-12-20T01:17:30;38.03;;;31.33;;
27728;SDS011;15126;42.186;24.340;2023-12-20T01:19:57;38.80;;;30.13;;
27728;SDS011;15126;42.186;24.340;2023-12-20T01:22:24;37.37;;;26.67;;
27728;SDS011;15126;42.186;24.340;2023-12-20T01:24:52;33.97;;;27.47;;
27728;SDS011;15126;42.186;24.340;2023-12-20T01:27:19;34.13;;;27.90;;
27728;SDS011;15126;42.186;24.340;2023-12-20T01:29:46;35.80;;;26.23;;
27728;SDS011;15126;42.186;24.340;2023-12-20T01:32:13;30.90;;;25.90;;
27728;SDS011;15126;42.186;24.340;2023-12-20T01:34:43;27.00;;;22.20;;
27728;SDS011;15126;42.186;24.340;2023-12-20T01:37:10;27.63;;;24.17;;
27728;SDS011;15126;42.186;24.340;2023-12-20T01:39:37;28.80;;;22.53;;
27728;SDS011;15126;42.186;24.340;2023-12-20T01:42:05;31.00;;;25.93;;
27728;SDS011;15126;42.186;24.340;2023-12-20T01:44:32;31.20;;;23.27;;
27728;SDS011;15126;42.186;24.340;2023-12-20T01:46:59;30.93;;;25.37;;
27728;SDS011;15126;42.186;24.340;2023-12-20T01:49:26;28.13;;;25.13;;
27728;SDS011;15126;42.186;24.340;2023-12-20T01:51:54;30.17;;;25.23;;
27728;SDS011;15126;42.186;24.340;2023-12-20T01:54:21;29.83;;;25.23;;
27728;SDS011;15126;42.186;24.340;2023-12-20T01:56:49;33.47;;;26.30;;
27728;SDS011;15126;42.186;24.340;2023-12-20T01:59:18;26.43;;;23.13;;
27728;SDS011;15126;42.186;24.340;2023-12-20T02:01:46;27.97;;;23.93;;
27728;SDS011;15126;42.186;24.340;2023-12-20T02:04:13;25.40;;;21.63;;
27728;SDS011;15126;42.186;24.340;2023-12-20T02:06:41;28.43;;;23.87;;
27728;SDS011;15126;42.186;24.340;2023-12-20T02:09:09;28.13;;;23.03;;
27728;SDS011;15126;42.186;24.340;2023-12-20T02:11:37;30.53;;;23.77;;
27728;SDS011;15126;42.186;24.340;2023-12-20T02:14:04;28.47;;;23.77;;
27728;SDS011;15126;42.186;24.340;2023-12-20T02:16:32;34.47;;;25.10;;
27728;SDS011;15126;42.186;24.340;2023-12-20T02:18:59;31.30;;;25.47;;
27728;SDS011;15126;42.186;24.340;2023-12-20T02:21:32;32.53;;;26.93;;
27728;SDS011;15126;42.186;24.340;2023-12-20T02:24:00;34.30;;;30.03;;
27728;SDS011;15126;42.186;24.340;2023-12-20T02:26:27;39.83;;;28.47;;
27728;SDS011;15126;42.186;24.340;2023-12-20T02:28:54;33.70;;;29.70;;
27728;SDS011;15126;42.186;24.340;2023-12-20T02:31:21;41.77;;;29.17;;
27728;SDS011;15126;42.186;24.340;2023-12-20T02:33:49;40.50;;;31.07;;
27728;SDS011;15126;42.186;24.340;2023-12-20T02:36:16;40.50;;;31.03;;
27728;SDS011;15126;42.186;24.340;2023-12-20T02:38:44;36.67;;;28.80;;
27728;SDS011;15126;42.186;24.340;2023-12-20T02:41:12;41.80;;;30.90;;
27728;SDS011;15126;42.186;24.340;2023-12-20T02:43:41;40.30;;;30.43;;
27728;SDS011;15126;42.186;24.340;2023-12-20T02:46:08;39.20;;;29.37;;
27728;SDS011;15126;42.186;24.340;2023-12-20T02:48:34;40.47;;;31.10;;
27728;SDS011;15126;42.186;24.340;2023-12-20T02:51:01;39.17;;;29.23;;
27728;SDS011;15126;42.186;24.340;2023-12-20T02:53:28;41.53;;;29.90;;
27728;SDS011;15126;42.186;24.340;2023-12-20T02:55:57;38.53;;;29.47;;
27728;SDS011;15126;42.186;24.340;2023-12-20T02:58:24;38.17;;;30.10;;
27728;SDS011;15126;42.186;24.340;2023-12-20T03:00:51;40.33;;;32.20;;
27728;SDS011;15126;42.186;24.340;2023-12-20T03:03:17;31.67;;;27.13;;
27728;SDS011;15126;42.186;24.340;2023-12-20T03:05:45;31.90;;;27.83;;
27728;SDS011;15126;42.186;24.340;2023-12-20T03:08:12;33.73;;;28.20;;
27728;SDS011;15126;42.186;24.340;2023-12-20T03:10:39;34.53;;;26.60;;
27728;SDS011;15126;42.186;24.340;2023-12-20T03:13:07;33.43;;;28.67;;
27728;SDS011;15126;42.186;24.340;2023-12-20T03:15:34;31.97;;;27.40;;
27728;SDS011;15126;42.186;24.340;2023-12-20T03:18:02;36.37;;;29.10;;
27728;SDS011;15126;42.186;24.340;2023-12-20T03:20:35;36.50;;;28.50;;
27728;SDS011;15126;42.186;24.340;2023-12-20T03:23:01;36.03;;;28.37;;
27728;SDS011;15126;42.186;24.340;2023-12-20T03:25:29;34.03;;;28.53;;
27728;SDS011;15126;42.186;24.340;2023-12-20T03:27:56;30.30;;;26.77;;
27728;SDS011;15126;42.186;24.340;2023-12-20T03:30:24;33.37;;;26.53;;
27728;SDS011;15126;42.186;24.340;2023-12-20T03:32:51;33.40;;;26.27;;
27728;SDS011;15126;42.186;24.340;2023-12-20T03:35:18;31.80;;;26.80;;
27728;SDS011;15126;42.186;24.340;2023-12-20T03:37:45;35.33;;;27.50;;
27728;SDS011;15126;42.186;24.340;2023-12-20T03:40:11;33.97;;;26.70;;
27728;SDS011;15126;42.186;24.340;2023-12-20T03:42:38;30.60;;;25.73;;
27728;SDS011;15126;42.186;24.340;2023-12-20T03:45:06;33.67;;;27.90;;
27728;SDS011;15126;42.186;24.340;2023-12-20T03:47:35;32.20;;;27.60;;
27728;SDS011;15126;42.186;24.340;2023-12-20T03:50:02;36.70;;;30.13;;
27728;SDS011;15126;42.186;24.340;2023-12-20T03:52:29;39.07;;;32.00;;
27728;SDS011;15126;42.186;24.340;2023-12-20T03:54:56;35.73;;;29.70;;
27728;SDS011;15126;42.186;24.340;2023-12-20T03:57:23;36.67;;;30.03;;
27728;SDS011;15126;42.186;24.340;2023-12-20T03:59:50;36.07;;;29.77;;
27728;SDS011;15126;42.186;24.340;2023-12-20T04:02:17;36.90;;;30.43;;
27728;SDS011;15126;42.186;24.340;2023-12-20T04:04:45;34.87;;;29.70;;
27728;SDS011;15126;42.186;24.340;2023-12-20T04:07:12;37.50;;;31.63;;
27728;SDS011;15126;42.186;24.340;2023-12-20T04:09:40;36.93;;;32.77;;
27728;SDS011;15126;42.186;24.340;2023-12-20T04:12:08;37.87;;;29.50;;
27728;SDS011;15126;42.186;24.340;2023-12-20T04:14:37;36.30;;;27.03;;
27728;SDS011;15126;42.186;24.340;2023-12-20T04:17:04;29.47;;;26.30;;
27728;SDS011;15126;42.186;24.340;2023-12-20T04:19:31;29.87;;;24.97;;
27728;SDS011;15126;42.186;24.340;2023-12-20T04:21:59;29.80;;;26.67;;
27728;SDS011;15126;42.186;24.340;2023-12-20T04:24:27;27.67;;;24.17;;
27728;SDS011;15126;42.186;24.340;2023-12-20T04:26:53;27.47;;;24.47;;
27728;SDS011;15126;42.186;24.340;2023-12-20T04:29:23;31.10;;;25.37;;
27728;SDS011;15126;42.186;24.340;2023-12-20T04:31:55;30.57;;;27.27;;
27728;SDS011;15126;42.186;24.340;2023-12-20T04:34:22;32.00;;;28.47;;
27728;SDS011;15126;42.186;24.340;2023-12-20T04:36:49;32.67;;;29.23;;
27728;SDS011;15126;42.186;24.340;2023-12-20T04:39:18;32.00;;;28.10;;
27728;SDS011;15126;42.186;24.340;2023-12-20T04:41:45;30.47;;;27.20;;
27728;SDS011;15126;42.186;24.340;2023-12-20T04:44:12;32.07;;;24.63;;
27728;SDS011;15126;42.186;24.340;2023-12-20T04:46:41;29.57;;;25.13;;
27728;SDS011;15126;42.186;24.340;2023-12-20T04:49:09;31.47;;;28.23;;
27728;SDS011;15126;42.186;24.340;2023-12-20T04:51:36;33.37;;;28.57;;
27728;SDS011;15126;42.186;24.340;2023-12-20T04:54:05;30.03;;;26.80;;
27728;SDS011;15126;42.186;24.340;2023-12-20T04:56:33;29.73;;;25.73;;
27728;SDS011;15126;42.186;24.340;2023-12-20T04:59:02;30.30;;;24.93;;
27728;SDS011;15126;42.186;24.340;2023-12-20T05:01:29;34.00;;;25.10;;
27728;SDS011;15126;42.186;24.340;2023-12-20T05:03:56;24.47;;;21.87;;
27728;SDS011;15126;42.186;24.340;2023-12-20T05:06:23;27.47;;;22.00;;
27728;SDS011;15126;42.186;24.340;2023-12-20T05:08:50;31.87;;;24.47;;
27728;SDS011;15126;42.186;24.340;2023-12-20T05:11:17;29.53;;;23.67;;
27728;SDS011;15126;42.186;24.340;2023-12-20T05:13:49;55.17;;;33.17;;
27728;SDS011;15126;42.186;24.340;2023-12-20T05:16:20;48.50;;;31.00;;
27728;SDS011;15126;42.186;24.340;2023-12-20T05:18:47;42.80;;;27.47;;
27728;SDS011;15126;42.186;24.340;2023-12-20T05:21:19;45.90;;;27.57;;
27728;SDS011;15126;42.186;24.340;2023-12-20T05:23:46;55.67;;;30.70;;
27728;SDS011;15126;42.186;24.340;2023-12-20T05:26:14;57.07;;;31.40;;
27728;SDS011;15126;42.186;24.340;2023-12-20T05:28:41;51.87;;;33.33;;
27728;SDS011;15126;42.186;24.340;2023-12-20T05:31:11;54.77;;;33.40;;
27728;SDS011;15126;42.186;24.340;2023-12-20T05:33:38;59.37;;;33.63;;
27728;SDS011;15126;42.186;24.340;2023-12-20T05:36:05;57.20;;;32.17;;
27728;SDS011;15126;42.186;24.340;2023-12-20T05:38:36;56.97;;;38.27;;
27728;SDS011;15126;42.186;24.340;2023-12-20T05:41:06;50.80;;;35.80;;
27728;SDS011;15126;42.186;24.340;2023-12-20T05:43:33;37.23;;;29.53;;
27728;SDS011;15126;42.186;24.340;2023-12-20T05:46:03;33.43;;;25.53;;
27728;SDS011;15126;42.186;24.340;2023-12-20T05:48:31;41.63;;;28.47;;
27728;SDS011;15126;42.186;24.340;2023-12-20T05:50:58;39.67;;;27.63;;
27728;SDS011;15126;42.186;24.340;2023-12-20T05:53:29;38.17;;;27.07;;
27728;SDS011;15126;42.186;24.340;2023-12-20T05:55:57;36.30;;;26.87;;
27728;SDS011;15126;42.186;24.340;2023-12-20T05:58:25;43.00;;;31.20;;
27728;SDS011;15126;42.186;24.340;2023-12-20T06:00:51;48.70;;;31.30;;
27728;SDS011;15126;42.186;24.340;2023-12-20T06:03:19;43.80;;;31.90;;
27728;SDS011;15126;42.186;24.340;2023-12-20T06:05:59;41.00;;;30.77;;
27728;SDS011;15126;42.186;24.340;2023-12-20T06:08:33;37.03;;;26.67;;
27728;SDS011;15126;42.186;24.340;2023-12-20T06:11:00;33.30;;;26.93;;
27728;SDS011;15126;42.186;24.340;2023-12-20T06:13:27;37.20;;;28.77;;
27728;SDS011;15126;42.186;24.340;2023-12-20T06:15:54;34.83;;;27.67;;
27728;SDS011;15126;42.186;24.340;2023-12-20T06:18:21;36.73;;;29.43;;
27728;SDS011;15126;42.186;24.340;2023-12-20T06:20:49;29.13;;;26.17;;
27728;SDS011;15126;42.186;24.340;2023-12-20T06:23:18;28.97;;;25.80;;
27728;SDS011;15126;42.186;24.340;2023-12-20T06:25:45;30.03;;;26.87;;
27728;SDS011;15126;42.186;24.340;2023-12-20T06:28:12;28.37;;;25.33;;
27728;SDS011;15126;42.186;24.340;2023-12-20T06:30:40;29.90;;;24.10;;
27728;SDS011;15126;42.186;24.340;2023-12-20T06:33:09;24.93;;;22.27;;
27728;SDS011;15126;42.186;24.340;2023-12-20T06:35:37;26.87;;;23.80;;
27728;SDS011;15126;42.186;24.340;2023-12-20T06:38:04;26.67;;;23.13;;
27728;SDS011;15126;42.186;24.340;2023-12-20T06:40:32;28.83;;;23.50;;
27728;SDS011;15126;42.186;24.340;2023-12-20T06:42:59;24.47;;;21.87;;
27728;SDS011;15126;42.186;24.340;2023-12-20T06:45:26;26.90;;;24.03;;
27728;SDS011;15126;42.186;24.340;2023-12-20T06:47:53;34.33;;;26.80;;
27728;SDS011;15126;42.186;24.340;2023-12-20T06:50:20;27.40;;;24.43;;
27728;SDS011;15126;42.186;24.340;2023-12-20T06:52:48;28.13;;;25.07;;
27728;SDS011;15126;42.186;24.340;2023-12-20T06:55:25;27.90;;;25.07;;
27728;SDS011;15126;42.186;24.340;2023-12-20T06:57:54;28.27;;;23.77;;
27728;SDS011;15126;42.186;24.340;2023-12-20T07:00:21;29.57;;;24.57;;
27728;SDS011;15126;42.186;24.340;2023-12-20T07:02:48;32.00;;;26.33;;
27728;SDS011;15126;42.186;24.340;2023-12-20T07:05:18;32.20;;;25.90;;
27728;SDS011;15126;42.186;24.340;2023-12-20T07:07:45;33.97;;;29.53;;
27728;SDS011;15126;42.186;24.340;2023-12-20T07:10:20;31.27;;;25.23;;
27728;SDS011;15126;42.186;24.340;2023-12-20T07:12:47;41.47;;;33.57;;
27728;SDS011;15126;42.186;24.340;2023-12-20T07:15:17;32.63;;;29.10;;
27728;SDS011;15126;42.186;24.340;2023-12-20T07:17:46;35.40;;;29.20;;
27728;SDS011;15126;42.186;24.340;2023-12-20T07:20:14;32.77;;;28.67;;
27728;SDS011;15126;42.186;24.340;2023-12-20T07:22:41;33.70;;;29.80;;
27728;SDS011;15126;42.186;24.340;2023-12-20T07:25:11;33.30;;;29.03;;
27728;SDS011;15126;42.186;24.340;2023-12-20T07:27:41;29.50;;;25.50;;
27728;SDS011;15126;42.186;24.340;2023-12-20T07:30:15;27.93;;;24.87;;
27728;SDS011;15126;42.186;24.340;2023-12-20T07:32:44;32.27;;;26.40;;
27728;SDS011;15126;42.186;24.340;2023-12-20T07:35:17;35.97;;;27.77;;
27728;SDS011;15126;42.186;24.340;2023-12-20T07:37:45;44.70;;;31.67;;
27728;SDS011;15126;42.186;24.340;2023-12-20T07:40:16;38.80;;;30.13;;
27728;SDS011;15126;42.186;24.340;2023-12-20T07:42:43;35.10;;;27.53;;
27728;SDS011;15126;42.186;24.340;2023-12-20T07:45:12;28.17;;;22.53;;
27728;SDS011;15126;42.186;24.340;2023-12-20T07:47:43;27.03;;;24.20;;
27728;SDS011;15126;42.186;24.340;2023-12-20T07:50:10;25.90;;;22.10;;
27728;SDS011;15126;42.186;24.340;2023-12-20T07:52:37;22.67;;;19.90;;
27728;SDS011;15126;42.186;24.340;2023-12-20T07:55:07;21.83;;;19.30;;
27728;SDS011;15126;42.186;24.340;2023-12-20T07:57:35;38.70;;;30.37;;
27728;SDS011;15126;42.186;24.340;2023-12-20T08:00:02;31.87;;;23.47;;
27728;SDS011;15126;42.186;24.340;2023-12-20T08:02:33;23.57;;;20.57;;
27728;SDS011;15126;42.186;24.340;2023-12-20T08:05:05;25.27;;;22.33;;
27728;SDS011;15126;42.186;24.340;2023-12-20T08:07:33;26.33;;;21.37;;
27728;SDS011;15126;42.186;24.340;2023-12-20T08:10:03;35.43;;;23.53;;
27728;SDS011;15126;42.186;24.340;2023-12-20T08:12:31;26.60;;;20.97;;
27728;SDS011;15126;42.186;24.340;2023-12-20T08:15:03;34.87;;;30.73;;
27728;SDS011;15126;42.186;24.340;2023-12-20T08:17:30;31.37;;;22.90;;
27728;SDS011;15126;42.186;24.340;2023-12-20T08:20:04;26.93;;;21.60;;
27728;SDS011;15126;42.186;24.340;2023-12-20T08:22:32;27.03;;;24.03;;
27728;SDS011;15126;42.186;24.340;2023-12-20T08:25:00;28.37;;;24.83;;
27728;SDS011;15126;42.186;24.340;2023-12-20T08:27:27;26.90;;;22.57;;
27728;SDS011;15126;42.186;24.340;2023-12-20T08:29:54;25.93;;;23.23;;
27728;SDS011;15126;42.186;24.340;2023-12-20T08:32:24;28.03;;;23.53;;
27728;SDS011;15126;42.186;24.340;2023-12-20T08:34:52;28.60;;;24.10;;
27728;SDS011;15126;42.186;24.340;2023-12-20T08:37:20;31.27;;;27.90;;
27728;SDS011;15126;42.186;24.340;2023-12-20T08:39:50;32.07;;;27.50;;
27728;SDS011;15126;42.186;24.340;2023-12-20T08:42:22;32.20;;;27.13;;
27728;SDS011;15126;42.186;24.340;2023-12-20T08:44:56;34.87;;;29.50;;
27728;SDS011;15126;42.186;24.340;2023-12-20T08:47:24;43.90;;;33.17;;
27728;SDS011;15126;42.186;24.340;2023-12-20T08:49:56;38.27;;;33.30;;
27728;SDS011;15126;42.186;24.340;2023-12-20T08:52:28;33.80;;;29.27;;
27728;SDS011;15126;42.186;24.340;2023-12-20T08:54:55;33.00;;;27.73;;
27728;SDS011;15126;42.186;24.340;2023-12-20T08:57:25;26.50;;;22.77;;
27728;SDS011;15126;42.186;24.340;2023-12-20T08:59:52;23.90;;;21.30;;
27728;SDS011;15126;42.186;24.340;2023-12-20T09:02:19;18.80;;;16.53;;
27728;SDS011;15126;42.186;24.340;2023-12-20T09:04:47;18.03;;;16.10;;
27728;SDS011;15126;42.186;24.340;2023-12-20T09:07:22;18.43;;;16.53;;
27728;SDS011;15126;42.186;24.340;2023-12-20T09:09:52;20.73;;;18.50;;
27728;SDS011;15126;42.186;24.340;2023-12-20T09:12:22;27.20;;;18.67;;
27728;SDS011;15126;42.186;24.340;2023-12-20T09:14:56;21.93;;;17.43;;
27728;SDS011;15126;42.186;24.340;2023-12-20T09:17:23;21.10;;;18.80;;
27728;SDS011;15126;42.186;24.340;2023-12-20T09:19:52;21.80;;;19.50;;
27728;SDS011;15126;42.186;24.340;2023-12-20T09:22:25;21.73;;;17.90;;
27728;SDS011;15126;42.186;24.340;2023-12-20T09:24:56;23.37;;;19.87;;
27728;SDS011;15126;42.186;24.340;2023-12-20T09:27:27;25.50;;;19.47;;
27728;SDS011;15126;42.186;24.340;2023-12-20T09:29:55;22.13;;;19.83;;
27728;SDS011;15126;42.186;24.340;2023-12-20T09:32:22;24.50;;;21.90;;
27728;SDS011;15126;42.186;24.340;2023-12-20T09:34:52;29.23;;;22.30;;
27728;SDS011;15126;42.186;24.340;2023-12-20T09:37:20;22.93;;;19.83;;
27728;SDS011;15126;42.186;24.340;2023-12-20T09:39:47;22.83;;;20.67;;
27728;SDS011;15126;42.186;24.340;2023-12-20T09:42:16;23.57;;;20.13;;
27728;SDS011;15126;42.186;24.340;2023-12-20T09:44:53;30.33;;;17.03;;
27728;SDS011;15126;42.186;24.340;2023-12-20T09:47:21;18.20;;;13.17;;
27728;SDS011;15126;42.186;24.340;2023-12-20T09:49:52;17.73;;;14.37;;
27728;SDS011;15126;42.186;24.340;2023-12-20T09:52:20;17.53;;;15.73;;
27728;SDS011;15126;42.186;24.340;2023-12-20T09:54:51;20.40;;;13.87;;
27728;SDS011;15126;42.186;24.340;2023-12-20T09:57:23;18.97;;;14.27;;
27728;SDS011;15126;42.186;24.340;2023-12-20T09:59:50;15.40;;;13.67;;
27728;SDS011;15126;42.186;24.340;2023-12-20T10:02:20;17.87;;;14.07;;
27728;SDS011;15126;42.186;24.340;2023-12-20T10:05:01;14.67;;;13.13;;
27728;SDS011;15126;42.186;24.340;2023-12-20T10:07:34;18.97;;;12.63;;
27728;SDS011;15126;42.186;24.340;2023-12-20T10:10:03;16.03;;;13.27;;
27728;SDS011;15126;42.186;24.340;2023-12-20T10:12:35;16.73;;;13.80;;
27728;SDS011;15126;42.186;24.340;2023-12-20T10:15:03;16.20;;;14.57;;
27728;SDS011;15126;42.186;24.340;2023-12-20T10:17:30;18.67;;;15.37;;
27728;SDS011;15126;42.186;24.340;2023-12-20T10:19:58;17.27;;;14.03;;
27728;SDS011;15126;42.186;24.340;2023-12-20T10:22:26;17.47;;;14.93;;
27728;SDS011;15126;42.186;24.340;2023-12-20T10:24:54;20.13;;;16.53;;
27728;SDS011;15126;42.186;24.340;2023-12-20T10:27:24;21.90;;;16.60;;
27728;SDS011;15126;42.186;24.340;2023-12-20T10:29:53;31.00;;;19.53;;
27728;SDS011;15126;42.186;24.340;2023-12-20T10:32:23;27.00;;;17.27;;
27728;SDS011;15126;42.186;24.340;2023-12-20T10:34:51;22.87;;;19.10;;
27728;SDS011;15126;42.186;24.340;2023-12-20T10:37:23;19.90;;;16.67;;
27728;SDS011;15126;42.186;24.340;2023-12-20T10:39:55;24.67;;;16.30;;
27728;SDS011;15126;42.186;24.340;2023-12-20T10:42:25;27.77;;;17.30;;
27728;SDS011;15126;42.186;24.340;2023-12-20T10:44:54;20.87;;;15.20;;
27728;SDS011;15126;42.186;24.340;2023-12-20T10:47:24;22.70;;;17.47;;
27728;SDS011;15126;42.186;24.340;2023-12-20T10:49:52;21.47;;;15.83;;
27728;SDS011;15126;42.186;24.340;2023-12-20T10:52:22;34.87;;;22.93;;
27728;SDS011;15126;42.186;24.340;2023-12-20T10:54:50;24.30;;;17.60;;
27728;SDS011;15126;42.186;24.340;2023-12-20T10:57:18;22.33;;;15.00;;
27728;SDS011;15126;42.186;24.340;2023-12-20T10:59:45;15.17;;;13.60;;
27728;SDS011;15126;42.186;24.340;2023-12-20T11:02:16;20.30;;;13.67;;
27728;SDS011;15126;42.186;24.340;2023-12-20T11:04:47;19.53;;;15.00;;
27728;SDS011;15126;42.186;24.340;2023-12-20T11:07:23;18.27;;;14.67;;
27728;SDS011;15126;42.186;24.340;2023-12-20T11:09:57;16.53;;;13.87;;
27728;SDS011;15126;42.186;24.340;2023-12-20T11:12:32;27.47;;;13.07;;
27728;SDS011;15126;42.186;24.340;2023-12-20T11:15:07;19.87;;;14.90;;
27728;SDS011;15126;42.186;24.340;2023-12-20T11:17:40;58.97;;;52.60;;
27728;SDS011;15126;42.186;24.340;2023-12-20T11:20:07;104.37;;;93.03;;
27728;SDS011;15126;42.186;24.340;2023-12-20T11:22:51;57.43;;;49.93;;
27728;SDS011;15126;42.186;24.340;2023-12-20T11:25:21;32.27;;;25.77;;
27728;SDS011;15126;42.186;24.340;2023-12-20T11:30:41;45.53;;;30.40;;
27728;SDS011;15126;42.186;24.340;2023-12-20T11:33:14;47.87;;;29.87;;
27728;SDS011;15126;42.186;24.340;2023-12-20T11:35:45;31.70;;;25.30;;
27728;SDS011;15126;42.186;24.340;2023-12-20T11:38:15;29.73;;;24.50;;
27728;SDS011;15126;42.186;24.340;2023-12-20T11:40:43;33.03;;;26.43;;
27728;SDS011;15126;42.186;24.340;2023-12-20T11:43:12;32.97;;;26.00;;
27728;SDS011;15126;42.186;24.340;2023-12-20T11:46:03;33.03;;;24.30;;
27728;SDS011;15126;42.186;24.340;2023-12-20T11:48:36;32.77;;;28.37;;
27728;SDS011;15126;42.186;24.340;2023-12-20T11:51:10;30.13;;;27.13;;
27728;SDS011;15126;42.186;24.340;2023-12-20T11:53:39;52.27;;;38.57;;
27728;SDS011;15126;42.186;24.340;2023-12-20T11:56:10;32.37;;;26.83;;
27728;SDS011;15126;42.186;24.340;2023-12-20T11:58:38;61.23;;;45.73;;
27728;SDS011;15126;42.186;24.340;2023-12-20T12:01:05;73.57;;;53.97;;
27728;SDS011;15126;42.186;24.340;2023-12-20T12:03:33;34.00;;;29.23;;
27728;SDS011;15126;42.186;24.340;2023-12-20T12:06:03;38.17;;;29.47;;
27728;SDS011;15126;42.186;24.340;2023-12-20T12:08:30;27.20;;;24.30;;
27728;SDS011;15126;42.186;24.340;2023-12-20T12:10:58;34.77;;;27.93;;
27728;SDS011;15126;42.186;24.340;2023-12-20T12:13:25;25.63;;;22.97;;
27728;SDS011;15126;42.186;24.340;2023-12-20T12:15:56;38.20;;;28.70;;
27728;SDS011;15126;42.186;24.340;2023-12-20T12:18:24;27.63;;;20.50;;
27728;SDS011;15126;42.186;24.340;2023-12-20T12:20:59;33.20;;;23.33;;
27728;SDS011;15126;42.186;24.340;2023-12-20T12:23:34;25.57;;;18.63;;
27728;SDS011;15126;42.186;24.340;2023-12-20T12:26:03;22.47;;;18.77;;
27728;SDS011;15126;42.186;24.340;2023-12-20T12:28:30;24.07;;;20.23;;
27728;SDS011;15126;42.186;24.340;2023-12-20T12:31:01;21.80;;;19.57;;
27728;SDS011;15126;42.186;24.340;2023-12-20T12:33:28;20.60;;;18.40;;
27728;SDS011;15126;42.186;24.340;2023-12-20T12:36:08;21.07;;;18.80;;
27728;SDS011;15126;42.186;24.340;2023-12-20T12:38:41;23.07;;;20.63;;
27728;SDS011;15126;42.186;24.340;2023-12-20T12:41:08;22.37;;;19.00;;
27728;SDS011;15126;42.186;24.340;2023-12-20T12:43:41;21.60;;;19.23;;
27728;SDS011;15126;42.186;24.340;2023-12-20T12:46:09;37.90;;;31.80;;
27728;SDS011;15126;42.186;24.340;2023-12-20T12:48:36;31.10;;;26.13;;
27728;SDS011;15126;42.186;24.340;2023-12-20T12:51:07;19.83;;;17.73;;
27728;SDS011;15126;42.186;24.340;2023-12-20T12:53:44;26.23;;;23.47;;
27728;SDS011;15126;42.186;24.340;2023-12-20T12:56:11;56.07;;;39.13;;
27728;SDS011;15126;42.186;24.340;2023-12-20T12:58:52;24.77;;;21.33;;
27728;SDS011;15126;42.186;24.340;2023-12-20T13:01:20;21.63;;;19.37;;
27728;SDS011;15126;42.186;24.340;2023-12-20T13:03:49;22.87;;;19.13;;
27728;SDS011;15126;42.186;24.340;2023-12-20T13:06:18;19.73;;;17.83;;
27728;SDS011;15126;42.186;24.340;2023-12-20T13:08:51;29.33;;;21.43;;
27728;SDS011;15126;42.186;24.340;2023-12-20T13:11:20;25.80;;;19.57;;
27728;SDS011;15126;42.186;24.340;2023-12-20T13:13:47;20.70;;;18.57;;
27728;SDS011;15126;42.186;24.340;2023-12-20T13:16:14;25.07;;;21.63;;
27728;SDS011;15126;42.186;24.340;2023-12-20T13:18:41;23.77;;;20.60;;
27728;SDS011;15126;42.186;24.340;2023-12-20T13:21:10;23.97;;;19.63;;
27728;SDS011;15126;42.186;24.340;2023-12-20T13:23:43;27.20;;;20.90;;
27728;SDS011;15126;42.186;24.340;2023-12-20T13:26:12;22.57;;;19.17;;
27728;SDS011;15126;42.186;24.340;2023-12-20T13:28:44;23.20;;;20.67;;
27728;SDS011;15126;42.186;24.340;2023-12-20T13:31:12;28.07;;;21.90;;
27728;SDS011;15126;42.186;24.340;2023-12-20T13:33:40;25.73;;;22.13;;
27728;SDS011;15126;42.186;24.340;2023-12-20T13:36:08;28.10;;;21.10;;
27728;SDS011;15126;42.186;24.340;2023-12-20T13:38:38;24.47;;;20.80;;
27728;SDS011;15126;42.186;24.340;2023-12-20T13:41:05;22.10;;;19.10;;
27728;SDS011;15126;42.186;24.340;2023-12-20T13:43:37;22.13;;;18.27;;
27728;SDS011;15126;42.186;24.340;2023-12-20T13:46:06;21.83;;;17.70;;
27728;SDS011;15126;42.186;24.340;2023-12-20T13:48:34;26.93;;;20.27;;
27728;SDS011;15126;42.186;24.340;2023-12-20T13:51:10;24.83;;;19.80;;
27728;SDS011;15126;42.186;24.340;2023-12-20T13:53:37;26.37;;;18.47;;
27728;SDS011;15126;42.186;24.340;2023-12-20T13:56:05;20.03;;;16.17;;
27728;SDS011;15126;42.186;24.340;2023-12-20T13:58:33;18.03;;;16.10;;
27728;SDS011;15126;42.186;24.340;2023-12-20T14:01:01;18.37;;;13.50;;
27728;SDS011;15126;42.186;24.340;2023-12-20T14:03:29;16.00;;;13.87;;
27728;SDS011;15126;42.186;24.340;2023-12-20T14:05:56;20.87;;;14.87;;
27728;SDS011;15126;42.186;24.340;2023-12-20T14:08:40;17.30;;;15.27;;
27728;SDS011;15126;42.186;24.340;2023-12-20T14:11:10;22.23;;;17.10;;
27728;SDS011;15126;42.186;24.340;2023-12-20T14:13:40;18.17;;;16.23;;
27728;SDS011;15126;42.186;24.340;2023-12-20T14:16:10;24.37;;;18.20;;
27728;SDS011;15126;42.186;24.340;2023-12-20T14:18:40;25.97;;;17.93;;
27728;SDS011;15126;42.186;24.340;2023-12-20T14:21:11;24.37;;;16.00;;
27728;SDS011;15126;42.186;24.340;2023-12-20T14:23:38;23.73;;;17.67;;
27728;SDS011;15126;42.186;24.340;2023-12-20T14:26:06;27.00;;;19.33;;